sensor_id;sensor_type;location;lat;lon;timestamp;P1;durP1;ratioP1;P2;durP2;ratioP2
75191;SDS011;63771;52.580;9.734;2023-07-20T00:01:30;3.13;;;1.02;;
75191;SDS011;63771;52.580;9.734;2023-07-20T00:03:55;3.42;;;2.38;;
75191;SDS011;63771;52.580;9.734;2023-07-20T00:06:21;0.90;;;0.90;;
75191;SDS011;63771;52.580;9.734;2023-07-20T00:08:47;1.10;;;1.10;;
75191;SDS011;63771;52.580;9.734;2023-07-20T00:11:13;0.95;;;0.95;;
75191;SDS011;63771;52.580;9.734;2023-07-20T00:13:38;0.88;;;0.88;;
75191;SDS011;63771;52.580;9.734;2023-07-20T00:16:04;1.02;;;1.02;;
75191;SDS011;63771;52.580;9.734;2023-07-20T00:18:30;0.90;;;0.90;;
75191;SDS011;63771;52.580;9.734;2023-07-20T00:20:55;0.90;;;0.90;;
75191;SDS011;63771;52.580;9.734;2023-07-20T00:23:20;2.17;;;1.50;;
75191;SDS011;63771;52.580;9.734;2023-07-20T00:25:47;0.90;;;0.90;;
75191;SDS011;63771;52.580;9.734;2023-07-20T00:28:13;0.95;;;0.95;;
75191;SDS011;63771;52.580;9.734;2023-07-20T00:30:38;1.10;;;1.10;;
75191;SDS011;63771;52.580;9.734;2023-07-20T00:33:03;1.17;;;1.17;;
75191;SDS011;63771;52.580;9.734;2023-07-20T00:35:29;1.07;;;1.00;;
75191;SDS011;63771;52.580;9.734;2023-07-20T00:37:54;0.83;;;0.83;;
75191;SDS011;63771;52.580;9.734;2023-07-20T00:40:19;0.80;;;0.80;;
75191;SDS011;63771;52.580;9.734;2023-07-20T00:42:45;1.30;;;0.95;;
75191;SDS011;63771;52.580;9.734;2023-07-20T00:45:10;1.00;;;1.00;;
75191;SDS011;63771;52.580;9.734;2023-07-20T00:47:36;3.80;;;1.00;;
75191;SDS011;63771;52.580;9.734;2023-07-20T00:50:02;1.88;;;1.13;;
75191;SDS011;63771;52.580;9.734;2023-07-20T00:52:28;6.05;;;1.55;;
75191;SDS011;63771;52.580;9.734;2023-07-20T00:54:54;1.05;;;1.05;;
75191;SDS011;63771;52.580;9.734;2023-07-20T00:57:21;1.10;;;1.10;;
75191;SDS011;63771;52.580;9.734;2023-07-20T00:59:48;3.33;;;1.00;;
75191;SDS011;63771;52.580;9.734;2023-07-20T01:02:14;1.48;;;0.95;;
75191;SDS011;63771;52.580;9.734;2023-07-20T01:04:39;1.40;;;1.30;;
75191;SDS011;63771;52.580;9.734;2023-07-20T01:07:12;3.30;;;1.17;;
75191;SDS011;63771;52.580;9.734;2023-07-20T01:12:27;2.70;;;1.17;;
75191;SDS011;63771;52.580;9.734;2023-07-20T01:17:26;0.82;;;0.82;;
75191;SDS011;63771;52.580;9.734;2023-07-20T01:19:51;1.17;;;1.17;;
75191;SDS011;63771;52.580;9.734;2023-07-20T01:33:47;1.42;;;1.33;;
75191;SDS011;63771;52.580;9.734;2023-07-20T01:36:13;0.95;;;0.85;;
75191;SDS011;63771;52.580;9.734;2023-07-20T01:41:07;1.23;;;1.15;;
75191;SDS011;63771;52.580;9.734;2023-07-20T01:43:36;1.30;;;1.10;;
75191;SDS011;63771;52.580;9.734;2023-07-20T01:46:01;2.00;;;0.88;;
75191;SDS011;63771;52.580;9.734;2023-07-20T01:48:27;1.05;;;1.00;;
75191;SDS011;63771;52.580;9.734;2023-07-20T01:50:52;1.20;;;1.20;;
75191;SDS011;63771;52.580;9.734;2023-07-20T01:53:17;1.30;;;1.00;;
75191;SDS011;63771;52.580;9.734;2023-07-20T01:55:43;1.00;;;0.90;;
75191;SDS011;63771;52.580;9.734;2023-07-20T01:58:08;1.17;;;1.10;;
75191;SDS011;63771;52.580;9.734;2023-07-20T02:00:34;1.58;;;1.13;;
75191;SDS011;63771;52.580;9.734;2023-07-20T02:02:59;1.27;;;1.23;;
75191;SDS011;63771;52.580;9.734;2023-07-20T02:05:24;1.07;;;0.90;;
75191;SDS011;63771;52.580;9.734;2023-07-20T02:07:50;1.45;;;1.15;;
75191;SDS011;63771;52.580;9.734;2023-07-20T02:10:15;1.10;;;1.10;;
75191;SDS011;63771;52.580;9.734;2023-07-20T02:12:41;1.23;;;1.10;;
75191;SDS011;63771;52.580;9.734;2023-07-20T02:15:06;1.45;;;1.45;;
75191;SDS011;63771;52.580;9.734;2023-07-20T02:17:33;1.27;;;1.20;;
75191;SDS011;63771;52.580;9.734;2023-07-20T02:19:58;1.13;;;1.13;;
75191;SDS011;63771;52.580;9.734;2023-07-20T02:22:24;1.60;;;1.58;;
75191;SDS011;63771;52.580;9.734;2023-07-20T02:24:49;1.50;;;1.20;;
75191;SDS011;63771;52.580;9.734;2023-07-20T02:27:15;1.73;;;1.55;;
75191;SDS011;63771;52.580;9.734;2023-07-20T02:29:41;1.48;;;1.38;;
75191;SDS011;63771;52.580;9.734;2023-07-20T02:32:06;1.00;;;1.00;;
75191;SDS011;63771;52.580;9.734;2023-07-20T02:34:32;1.92;;;1.40;;
75191;SDS011;63771;52.580;9.734;2023-07-20T02:36:58;1.30;;;1.30;;
75191;SDS011;63771;52.580;9.734;2023-07-20T02:39:26;1.27;;;1.27;;
75191;SDS011;63771;52.580;9.734;2023-07-20T02:41:52;1.55;;;1.45;;
75191;SDS011;63771;52.580;9.734;2023-07-20T02:44:18;4.68;;;1.50;;
75191;SDS011;63771;52.580;9.734;2023-07-20T02:46:43;1.60;;;1.50;;
75191;SDS011;63771;52.580;9.734;2023-07-20T02:49:08;1.93;;;1.53;;
75191;SDS011;63771;52.580;9.734;2023-07-20T02:51:34;1.52;;;1.42;;
75191;SDS011;63771;52.580;9.734;2023-07-20T02:53:59;1.40;;;1.30;;
75191;SDS011;63771;52.580;9.734;2023-07-20T02:56:25;1.48;;;1.48;;
75191;SDS011;63771;52.580;9.734;2023-07-20T02:58:50;1.50;;;1.50;;
75191;SDS011;63771;52.580;9.734;2023-07-20T03:01:16;1.60;;;1.48;;
75191;SDS011;63771;52.580;9.734;2023-07-20T03:03:44;3.20;;;1.30;;
75191;SDS011;63771;52.580;9.734;2023-07-20T03:06:16;1.63;;;1.52;;
75191;SDS011;63771;52.580;9.734;2023-07-20T03:08:42;1.95;;;1.63;;
75191;SDS011;63771;52.580;9.734;2023-07-20T03:11:10;1.70;;;1.60;;
75191;SDS011;63771;52.580;9.734;2023-07-20T03:13:35;1.90;;;1.77;;
75191;SDS011;63771;52.580;9.734;2023-07-20T03:16:01;2.20;;;1.80;;
75191;SDS011;63771;52.580;9.734;2023-07-20T03:18:26;2.35;;;2.22;;
75191;SDS011;63771;52.580;9.734;2023-07-20T03:20:51;2.23;;;2.13;;
75191;SDS011;63771;52.580;9.734;2023-07-20T03:23:17;4.87;;;2.30;;
75191;SDS011;63771;52.580;9.734;2023-07-20T03:25:42;2.25;;;1.92;;
75191;SDS011;63771;52.580;9.734;2023-07-20T03:28:07;2.10;;;2.00;;
75191;SDS011;63771;52.580;9.734;2023-07-20T03:30:33;2.57;;;2.37;;
75191;SDS011;63771;52.580;9.734;2023-07-20T03:32:58;2.15;;;1.95;;
75191;SDS011;63771;52.580;9.734;2023-07-20T03:35:23;2.13;;;1.70;;
75191;SDS011;63771;52.580;9.734;2023-07-20T03:37:49;2.37;;;1.40;;
75191;SDS011;63771;52.580;9.734;2023-07-20T03:40:14;3.83;;;1.80;;
75191;SDS011;63771;52.580;9.734;2023-07-20T03:42:40;1.90;;;1.80;;
75191;SDS011;63771;52.580;9.734;2023-07-20T03:45:06;1.73;;;1.50;;
75191;SDS011;63771;52.580;9.734;2023-07-20T03:47:32;2.10;;;1.88;;
75191;SDS011;63771;52.580;9.734;2023-07-20T03:49:57;1.70;;;1.70;;
75191;SDS011;63771;52.580;9.734;2023-07-20T03:52:23;2.53;;;1.98;;
75191;SDS011;63771;52.580;9.734;2023-07-20T03:54:48;1.67;;;1.58;;
75191;SDS011;63771;52.580;9.734;2023-07-20T03:57:16;2.00;;;1.60;;
75191;SDS011;63771;52.580;9.734;2023-07-20T03:59:44;2.00;;;1.88;;
75191;SDS011;63771;52.580;9.734;2023-07-20T04:02:10;1.92;;;1.83;;
75191;SDS011;63771;52.580;9.734;2023-07-20T04:04:35;2.00;;;1.90;;
75191;SDS011;63771;52.580;9.734;2023-07-20T04:07:00;2.60;;;2.50;;
75191;SDS011;63771;52.580;9.734;2023-07-20T04:09:26;2.23;;;1.90;;
75191;SDS011;63771;52.580;9.734;2023-07-20T04:11:51;4.27;;;1.73;;
75191;SDS011;63771;52.580;9.734;2023-07-20T04:14:16;3.43;;;1.90;;
75191;SDS011;63771;52.580;9.734;2023-07-20T04:16:42;3.43;;;3.03;;
75191;SDS011;63771;52.580;9.734;2023-07-20T04:19:07;2.83;;;2.40;;
75191;SDS011;63771;52.580;9.734;2023-07-20T04:21:39;4.55;;;2.40;;
75191;SDS011;63771;52.580;9.734;2023-07-20T04:24:06;2.80;;;2.63;;
75191;SDS011;63771;52.580;9.734;2023-07-20T04:26:31;2.92;;;2.58;;
75191;SDS011;63771;52.580;9.734;2023-07-20T04:28:56;3.57;;;2.90;;
75191;SDS011;63771;52.580;9.734;2023-07-20T04:31:24;2.80;;;2.60;;
75191;SDS011;63771;52.580;9.734;2023-07-20T04:33:49;3.00;;;2.80;;
75191;SDS011;63771;52.580;9.734;2023-07-20T04:36:14;2.72;;;2.50;;
75191;SDS011;63771;52.580;9.734;2023-07-20T04:38:44;3.35;;;2.90;;
75191;SDS011;63771;52.580;9.734;2023-07-20T04:41:09;2.88;;;2.67;;
75191;SDS011;63771;52.580;9.734;2023-07-20T04:43:41;3.38;;;3.08;;
75191;SDS011;63771;52.580;9.734;2023-07-20T04:46:08;3.28;;;2.97;;
75191;SDS011;63771;52.580;9.734;2023-07-20T04:48:33;3.10;;;2.90;;
75191;SDS011;63771;52.580;9.734;2023-07-20T04:50:59;3.33;;;3.03;;
75191;SDS011;63771;52.580;9.734;2023-07-20T04:53:24;4.30;;;3.50;;
75191;SDS011;63771;52.580;9.734;2023-07-20T04:55:50;2.90;;;2.70;;
75191;SDS011;63771;52.580;9.734;2023-07-20T04:58:16;5.65;;;3.67;;
75191;SDS011;63771;52.580;9.734;2023-07-20T05:00:43;3.17;;;2.88;;
75191;SDS011;63771;52.580;9.734;2023-07-20T05:03:09;2.42;;;2.33;;
75191;SDS011;63771;52.580;9.734;2023-07-20T05:05:34;3.47;;;3.17;;
75191;SDS011;63771;52.580;9.734;2023-07-20T05:07:59;3.60;;;2.67;;
75191;SDS011;63771;52.580;9.734;2023-07-20T05:10:25;3.23;;;3.03;;
75191;SDS011;63771;52.580;9.734;2023-07-20T05:12:50;3.10;;;2.90;;
75191;SDS011;63771;52.580;9.734;2023-07-20T05:15:15;3.43;;;3.20;;
75191;SDS011;63771;52.580;9.734;2023-07-20T05:17:40;4.17;;;3.87;;
75191;SDS011;63771;52.580;9.734;2023-07-20T05:20:06;3.75;;;3.40;;
75191;SDS011;63771;52.580;9.734;2023-07-20T05:22:34;3.90;;;3.60;;
75191;SDS011;63771;52.580;9.734;2023-07-20T05:25:00;3.47;;;3.28;;
75191;SDS011;63771;52.580;9.734;2023-07-20T05:27:25;3.60;;;3.40;;
75191;SDS011;63771;52.580;9.734;2023-07-20T05:29:50;5.23;;;2.87;;
75191;SDS011;63771;52.580;9.734;2023-07-20T05:32:16;3.72;;;2.85;;
75191;SDS011;63771;52.580;9.734;2023-07-20T05:34:42;3.20;;;3.00;;
75191;SDS011;63771;52.580;9.734;2023-07-20T05:37:10;3.73;;;3.43;;
75191;SDS011;63771;52.580;9.734;2023-07-20T05:39:35;3.58;;;3.28;;
75191;SDS011;63771;52.580;9.734;2023-07-20T05:42:00;3.50;;;3.20;;
75191;SDS011;63771;52.580;9.734;2023-07-20T05:44:26;4.63;;;3.25;;
75191;SDS011;63771;52.580;9.734;2023-07-20T05:46:51;3.40;;;3.20;;
75191;SDS011;63771;52.580;9.734;2023-07-20T05:49:16;3.30;;;3.10;;
75191;SDS011;63771;52.580;9.734;2023-07-20T05:51:42;3.87;;;3.50;;
75191;SDS011;63771;52.580;9.734;2023-07-20T05:54:07;3.97;;;3.60;;
75191;SDS011;63771;52.580;9.734;2023-07-20T05:56:33;3.80;;;3.60;;
75191;SDS011;63771;52.580;9.734;2023-07-20T05:58:58;3.80;;;3.60;;
75191;SDS011;63771;52.580;9.734;2023-07-20T06:01:24;3.33;;;3.13;;
75191;SDS011;63771;52.580;9.734;2023-07-20T06:03:52;3.70;;;3.40;;
75191;SDS011;63771;52.580;9.734;2023-07-20T06:06:17;4.22;;;3.55;;
75191;SDS011;63771;52.580;9.734;2023-07-20T06:08:43;4.35;;;3.58;;
75191;SDS011;63771;52.580;9.734;2023-07-20T06:11:08;3.60;;;3.30;;
75191;SDS011;63771;52.580;9.734;2023-07-20T06:13:33;3.78;;;3.53;;
75191;SDS011;63771;52.580;9.734;2023-07-20T06:15:59;3.70;;;3.50;;
75191;SDS011;63771;52.580;9.734;2023-07-20T06:18:24;4.20;;;3.50;;
75191;SDS011;63771;52.580;9.734;2023-07-20T06:20:52;4.47;;;3.90;;
75191;SDS011;63771;52.580;9.734;2023-07-20T06:23:18;3.75;;;3.45;;
75191;SDS011;63771;52.580;9.734;2023-07-20T06:25:44;3.35;;;3.15;;
75191;SDS011;63771;52.580;9.734;2023-07-20T06:28:10;4.22;;;3.92;;
75191;SDS011;63771;52.580;9.734;2023-07-20T06:30:35;4.70;;;3.63;;
75191;SDS011;63771;52.580;9.734;2023-07-20T06:33:01;3.20;;;2.97;;
75191;SDS011;63771;52.580;9.734;2023-07-20T06:35:26;3.60;;;3.40;;
75191;SDS011;63771;52.580;9.734;2023-07-20T06:37:52;4.00;;;3.70;;
75191;SDS011;63771;52.580;9.734;2023-07-20T06:40:17;3.72;;;3.20;;
75191;SDS011;63771;52.580;9.734;2023-07-20T06:42:43;3.08;;;2.88;;
75191;SDS011;63771;52.580;9.734;2023-07-20T06:45:08;4.25;;;3.90;;
75191;SDS011;63771;52.580;9.734;2023-07-20T06:47:34;4.07;;;3.67;;
75191;SDS011;63771;52.580;9.734;2023-07-20T06:49:59;3.55;;;3.35;;
75191;SDS011;63771;52.580;9.734;2023-07-20T06:52:25;3.30;;;3.03;;
75191;SDS011;63771;52.580;9.734;2023-07-20T06:54:50;3.85;;;3.50;;
75191;SDS011;63771;52.580;9.734;2023-07-20T06:57:16;4.22;;;3.38;;
75191;SDS011;63771;52.580;9.734;2023-07-20T06:59:41;4.07;;;3.75;;
75191;SDS011;63771;52.580;9.734;2023-07-20T07:02:07;3.63;;;3.38;;
75191;SDS011;63771;52.580;9.734;2023-07-20T07:04:33;4.57;;;3.97;;
75191;SDS011;63771;52.580;9.734;2023-07-20T07:06:59;4.20;;;3.67;;
75191;SDS011;63771;52.580;9.734;2023-07-20T07:09:24;5.38;;;4.88;;
75191;SDS011;63771;52.580;9.734;2023-07-20T07:11:50;5.80;;;4.57;;
75191;SDS011;63771;52.580;9.734;2023-07-20T07:14:15;4.37;;;4.07;;
75191;SDS011;63771;52.580;9.734;2023-07-20T07:16:40;5.07;;;4.63;;
75191;SDS011;63771;52.580;9.734;2023-07-20T07:19:06;3.13;;;3.03;;
75191;SDS011;63771;52.580;9.734;2023-07-20T07:21:33;3.40;;;3.20;;
75191;SDS011;63771;52.580;9.734;2023-07-20T07:23:58;4.22;;;3.97;;
75191;SDS011;63771;52.580;9.734;2023-07-20T07:26:24;3.65;;;3.45;;
75191;SDS011;63771;52.580;9.734;2023-07-20T07:28:50;4.18;;;3.45;;
75191;SDS011;63771;52.580;9.734;2023-07-20T07:31:15;4.10;;;3.80;;
75191;SDS011;63771;52.580;9.734;2023-07-20T07:33:41;3.20;;;3.00;;
75191;SDS011;63771;52.580;9.734;2023-07-20T07:36:06;3.70;;;3.22;;
75191;SDS011;63771;52.580;9.734;2023-07-20T07:38:32;3.97;;;3.72;;
75191;SDS011;63771;52.580;9.734;2023-07-20T07:40:57;4.40;;;3.90;;
75191;SDS011;63771;52.580;9.734;2023-07-20T07:43:23;3.00;;;2.78;;
75191;SDS011;63771;52.580;9.734;2023-07-20T07:45:48;3.00;;;2.80;;
75191;SDS011;63771;52.580;9.734;2023-07-20T07:48:14;3.05;;;2.67;;
75191;SDS011;63771;52.580;9.734;2023-07-20T07:50:39;2.90;;;2.70;;
75191;SDS011;63771;52.580;9.734;2023-07-20T07:53:07;2.90;;;2.65;;
75191;SDS011;63771;52.580;9.734;2023-07-20T07:55:33;3.45;;;2.22;;
75191;SDS011;63771;52.580;9.734;2023-07-20T07:58:00;2.40;;;2.30;;
75191;SDS011;63771;52.580;9.734;2023-07-20T08:00:25;2.38;;;2.28;;
75191;SDS011;63771;52.580;9.734;2023-07-20T08:02:51;1.92;;;1.83;;
75191;SDS011;63771;52.580;9.734;2023-07-20T08:05:16;2.38;;;2.22;;
75191;SDS011;63771;52.580;9.734;2023-07-20T08:07:42;3.78;;;1.98;;
75191;SDS011;63771;52.580;9.734;2023-07-20T08:10:07;2.08;;;1.50;;
75191;SDS011;63771;52.580;9.734;2023-07-20T08:12:33;1.70;;;1.70;;
75191;SDS011;63771;52.580;9.734;2023-07-20T08:14:58;1.60;;;1.60;;
75191;SDS011;63771;52.580;9.734;2023-07-20T08:17:24;1.50;;;1.50;;
75191;SDS011;63771;52.580;9.734;2023-07-20T08:19:50;1.52;;;1.50;;
75191;SDS011;63771;52.580;9.734;2023-07-20T08:22:15;1.58;;;1.52;;
75191;SDS011;63771;52.580;9.734;2023-07-20T08:24:41;1.97;;;1.60;;
75191;SDS011;63771;52.580;9.734;2023-07-20T08:27:08;1.50;;;1.50;;
75191;SDS011;63771;52.580;9.734;2023-07-20T08:29:36;1.60;;;1.50;;
75191;SDS011;63771;52.580;9.734;2023-07-20T08:32:02;1.65;;;1.13;;
75191;SDS011;63771;52.580;9.734;2023-07-20T08:34:29;2.05;;;1.30;;
75191;SDS011;63771;52.580;9.734;2023-07-20T08:36:54;1.10;;;1.10;;
75191;SDS011;63771;52.580;9.734;2023-07-20T08:39:20;1.00;;;1.00;;
75191;SDS011;63771;52.580;9.734;2023-07-20T08:41:47;1.00;;;1.00;;
75191;SDS011;63771;52.580;9.734;2023-07-20T08:44:13;1.25;;;1.15;;
75191;SDS011;63771;52.580;9.734;2023-07-20T08:46:39;1.10;;;1.10;;
75191;SDS011;63771;52.580;9.734;2023-07-20T08:49:06;4.13;;;1.10;;
75191;SDS011;63771;52.580;9.734;2023-07-20T08:51:32;1.45;;;0.70;;
75191;SDS011;63771;52.580;9.734;2023-07-20T08:53:59;2.20;;;1.05;;
75191;SDS011;63771;52.580;9.734;2023-07-20T08:56:25;1.23;;;1.00;;
75191;SDS011;63771;52.580;9.734;2023-07-20T08:58:54;0.70;;;0.70;;
75191;SDS011;63771;52.580;9.734;2023-07-20T09:01:21;1.23;;;1.00;;
75191;SDS011;63771;52.580;9.734;2023-07-20T09:03:47;2.78;;;1.00;;
75191;SDS011;63771;52.580;9.734;2023-07-20T09:06:13;1.25;;;0.98;;
75191;SDS011;63771;52.580;9.734;2023-07-20T09:08:42;0.88;;;0.88;;
75191;SDS011;63771;52.580;9.734;2023-07-20T09:11:10;1.33;;;0.85;;
75191;SDS011;63771;52.580;9.734;2023-07-20T09:13:37;0.98;;;0.82;;
75191;SDS011;63771;52.580;9.734;2023-07-20T09:16:02;0.80;;;0.80;;
75191;SDS011;63771;52.580;9.734;2023-07-20T09:18:30;0.80;;;0.80;;
75191;SDS011;63771;52.580;9.734;2023-07-20T09:21:06;2.70;;;1.65;;
75191;SDS011;63771;52.580;9.734;2023-07-20T09:23:32;3.03;;;1.00;;
75191;SDS011;63771;52.580;9.734;2023-07-20T09:25:58;4.47;;;1.00;;
75191;SDS011;63771;52.580;9.734;2023-07-20T09:28:24;1.13;;;0.70;;
75191;SDS011;63771;52.580;9.734;2023-07-20T09:30:49;0.80;;;0.80;;
75191;SDS011;63771;52.580;9.734;2023-07-20T09:33:18;3.03;;;1.00;;
75191;SDS011;63771;52.580;9.734;2023-07-20T09:35:44;1.52;;;0.88;;
75191;SDS011;63771;52.580;9.734;2023-07-20T09:38:10;1.30;;;1.20;;
75191;SDS011;63771;52.580;9.734;2023-07-20T09:40:38;0.80;;;0.80;;
75191;SDS011;63771;52.580;9.734;2023-07-20T09:43:07;1.10;;;0.80;;
75191;SDS011;63771;52.580;9.734;2023-07-20T09:45:33;1.25;;;0.90;;
75191;SDS011;63771;52.580;9.734;2023-07-20T09:48:06;6.43;;;1.27;;
75191;SDS011;63771;52.580;9.734;2023-07-20T09:50:41;0.80;;;0.80;;
75191;SDS011;63771;52.580;9.734;2023-07-20T09:53:09;0.73;;;0.73;;
75191;SDS011;63771;52.580;9.734;2023-07-20T09:55:38;1.08;;;0.73;;
75191;SDS011;63771;52.580;9.734;2023-07-20T10:00:32;1.15;;;0.80;;
75191;SDS011;63771;52.580;9.734;2023-07-20T10:02:58;1.38;;;0.90;;
75191;SDS011;63771;52.580;9.734;2023-07-20T10:05:27;0.82;;;0.68;;
75191;SDS011;63771;52.580;9.734;2023-07-20T10:07:57;0.82;;;0.65;;
75191;SDS011;63771;52.580;9.734;2023-07-20T10:10:23;0.70;;;0.70;;
75191;SDS011;63771;52.580;9.734;2023-07-20T10:12:50;0.60;;;0.60;;
75191;SDS011;63771;52.580;9.734;2023-07-20T10:15:20;0.85;;;0.80;;
75191;SDS011;63771;52.580;9.734;2023-07-20T10:17:58;0.90;;;0.70;;
75191;SDS011;63771;52.580;9.734;2023-07-20T10:20:27;3.28;;;0.82;;
75191;SDS011;63771;52.580;9.734;2023-07-20T10:22:54;0.73;;;0.73;;
75191;SDS011;63771;52.580;9.734;2023-07-20T10:25:22;0.73;;;0.70;;
75191;SDS011;63771;52.580;9.734;2023-07-20T10:27:48;1.42;;;0.80;;
75191;SDS011;63771;52.580;9.734;2023-07-20T10:30:14;6.43;;;1.00;;
75191;SDS011;63771;52.580;9.734;2023-07-20T10:32:40;0.75;;;0.75;;
75191;SDS011;63771;52.580;9.734;2023-07-20T10:35:13;0.70;;;0.70;;
75191;SDS011;63771;52.580;9.734;2023-07-20T10:37:50;1.67;;;0.80;;
75191;SDS011;63771;52.580;9.734;2023-07-20T10:40:26;2.45;;;0.70;;
75191;SDS011;63771;52.580;9.734;2023-07-20T10:43:05;0.70;;;0.70;;
75191;SDS011;63771;52.580;9.734;2023-07-20T10:45:33;2.05;;;0.73;;
75191;SDS011;63771;52.580;9.734;2023-07-20T10:48:06;0.80;;;0.70;;
75191;SDS011;63771;52.580;9.734;2023-07-20T10:50:38;1.05;;;0.90;;
75191;SDS011;63771;52.580;9.734;2023-07-20T10:53:12;0.90;;;0.82;;
75191;SDS011;63771;52.580;9.734;2023-07-20T10:55:39;0.60;;;0.60;;
75191;SDS011;63771;52.580;9.734;2023-07-20T10:58:08;1.42;;;0.90;;
75191;SDS011;63771;52.580;9.734;2023-07-20T11:00:35;0.68;;;0.68;;
75191;SDS011;63771;52.580;9.734;2023-07-20T11:03:00;0.75;;;0.75;;
75191;SDS011;63771;52.580;9.734;2023-07-20T11:05:36;1.27;;;0.70;;
75191;SDS011;63771;52.580;9.734;2023-07-20T11:08:16;1.08;;;0.98;;
75191;SDS011;63771;52.580;9.734;2023-07-20T11:14:02;0.95;;;0.70;;
75191;SDS011;63771;52.580;9.734;2023-07-20T11:16:42;0.95;;;0.63;;
75191;SDS011;63771;52.580;9.734;2023-07-20T11:19:15;2.15;;;1.02;;
75191;SDS011;63771;52.580;9.734;2023-07-20T11:21:51;1.83;;;1.10;;
75191;SDS011;63771;52.580;9.734;2023-07-20T11:24:17;0.90;;;0.90;;
75191;SDS011;63771;52.580;9.734;2023-07-20T11:26:50;0.80;;;0.80;;
75191;SDS011;63771;52.580;9.734;2023-07-20T11:29:17;0.90;;;0.90;;
75191;SDS011;63771;52.580;9.734;2023-07-20T11:31:44;0.70;;;0.70;;
75191;SDS011;63771;52.580;9.734;2023-07-20T11:34:14;0.80;;;0.80;;
75191;SDS011;63771;52.580;9.734;2023-07-20T11:36:41;1.20;;;1.08;;
75191;SDS011;63771;52.580;9.734;2023-07-20T11:39:08;0.85;;;0.70;;
75191;SDS011;63771;52.580;9.734;2023-07-20T11:41:34;0.80;;;0.80;;
75191;SDS011;63771;52.580;9.734;2023-07-20T11:44:00;1.08;;;1.08;;
75191;SDS011;63771;52.580;9.734;2023-07-20T11:46:27;1.13;;;1.13;;
75191;SDS011;63771;52.580;9.734;2023-07-20T11:49:03;1.85;;;1.60;;
75191;SDS011;63771;52.580;9.734;2023-07-20T11:51:28;1.58;;;1.38;;
75191;SDS011;63771;52.580;9.734;2023-07-20T11:53:55;1.60;;;1.00;;
75191;SDS011;63771;52.580;9.734;2023-07-20T11:56:22;2.10;;;1.10;;
75191;SDS011;63771;52.580;9.734;2023-07-20T11:58:50;1.05;;;1.00;;
75191;SDS011;63771;52.580;9.734;2023-07-20T12:01:19;1.10;;;1.10;;
75191;SDS011;63771;52.580;9.734;2023-07-20T12:03:45;1.10;;;1.10;;
75191;SDS011;63771;52.580;9.734;2023-07-20T12:06:13;0.90;;;0.90;;
75191;SDS011;63771;52.580;9.734;2023-07-20T12:08:42;1.38;;;1.10;;
75191;SDS011;63771;52.580;9.734;2023-07-20T12:11:09;1.13;;;0.90;;
75191;SDS011;63771;52.580;9.734;2023-07-20T12:13:43;1.55;;;0.90;;
75191;SDS011;63771;52.580;9.734;2023-07-20T12:16:12;0.85;;;0.85;;
75191;SDS011;63771;52.580;9.734;2023-07-20T12:21:05;1.20;;;1.20;;
75191;SDS011;63771;52.580;9.734;2023-07-20T12:23:36;2.35;;;1.50;;
75191;SDS011;63771;52.580;9.734;2023-07-20T12:26:03;1.10;;;1.10;;
75191;SDS011;63771;52.580;9.734;2023-07-20T12:28:31;1.25;;;1.15;;
75191;SDS011;63771;52.580;9.734;2023-07-20T12:30:56;1.60;;;1.13;;
75191;SDS011;63771;52.580;9.734;2023-07-20T12:33:22;1.33;;;1.33;;
75191;SDS011;63771;52.580;9.734;2023-07-20T12:35:47;1.10;;;1.10;;
75191;SDS011;63771;52.580;9.734;2023-07-20T12:38:13;1.45;;;1.40;;
75191;SDS011;63771;52.580;9.734;2023-07-20T12:40:39;1.50;;;1.50;;
75191;SDS011;63771;52.580;9.734;2023-07-20T12:43:05;1.35;;;1.15;;
75191;SDS011;63771;52.580;9.734;2023-07-20T12:45:32;1.33;;;1.23;;
75191;SDS011;63771;52.580;9.734;2023-07-20T12:47:57;10.52;;;1.77;;
75191;SDS011;63771;52.580;9.734;2023-07-20T12:50:22;2.03;;;1.40;;
75191;SDS011;63771;52.580;9.734;2023-07-20T12:52:48;4.73;;;1.13;;
75191;SDS011;63771;52.580;9.734;2023-07-20T12:55:13;1.90;;;0.98;;
75191;SDS011;63771;52.580;9.734;2023-07-20T12:57:40;6.10;;;1.50;;
75191;SDS011;63771;52.580;9.734;2023-07-20T13:00:06;5.68;;;1.42;;
75191;SDS011;63771;52.580;9.734;2023-07-20T13:02:34;5.35;;;1.92;;
75191;SDS011;63771;52.580;9.734;2023-07-20T13:05:01;3.33;;;1.30;;
75191;SDS011;63771;52.580;9.734;2023-07-20T13:07:30;1.40;;;1.00;;
75191;SDS011;63771;52.580;9.734;2023-07-20T13:09:57;7.05;;;1.75;;
75191;SDS011;63771;52.580;9.734;2023-07-20T13:12:25;2.10;;;1.38;;
75191;SDS011;63771;52.580;9.734;2023-07-20T13:14:50;4.13;;;1.25;;
75191;SDS011;63771;52.580;9.734;2023-07-20T13:17:15;12.30;;;2.27;;
75191;SDS011;63771;52.580;9.734;2023-07-20T13:19:41;4.17;;;1.80;;
75191;SDS011;63771;52.580;9.734;2023-07-20T13:22:06;18.00;;;2.40;;
75191;SDS011;63771;52.580;9.734;2023-07-20T13:24:31;4.13;;;1.50;;
75191;SDS011;63771;52.580;9.734;2023-07-20T13:26:56;5.27;;;1.50;;
75191;SDS011;63771;52.580;9.734;2023-07-20T13:29:22;1.80;;;1.13;;
75191;SDS011;63771;52.580;9.734;2023-07-20T13:31:49;8.68;;;1.50;;
75191;SDS011;63771;52.580;9.734;2023-07-20T13:34:14;1.03;;;1.03;;
75191;SDS011;63771;52.580;9.734;2023-07-20T13:36:39;2.33;;;2.13;;
75191;SDS011;63771;52.580;9.734;2023-07-20T13:39:05;1.02;;;1.02;;
75191;SDS011;63771;52.580;9.734;2023-07-20T13:41:31;1.55;;;1.08;;
75191;SDS011;63771;52.580;9.734;2023-07-20T13:43:57;2.20;;;1.05;;
75191;SDS011;63771;52.580;9.734;2023-07-20T13:46:22;0.88;;;0.88;;
75191;SDS011;63771;52.580;9.734;2023-07-20T13:48:48;3.53;;;1.25;;
75191;SDS011;63771;52.580;9.734;2023-07-20T13:51:13;1.23;;;0.90;;
75191;SDS011;63771;52.580;9.734;2023-07-20T13:53:39;0.65;;;0.65;;
75191;SDS011;63771;52.580;9.734;2023-07-20T13:56:05;1.20;;;1.20;;
75191;SDS011;63771;52.580;9.734;2023-07-20T13:58:31;0.82;;;0.82;;
75191;SDS011;63771;52.580;9.734;2023-07-20T14:00:57;1.25;;;0.90;;
75191;SDS011;63771;52.580;9.734;2023-07-20T14:03:22;4.78;;;1.20;;
75191;SDS011;63771;52.580;9.734;2023-07-20T14:05:47;5.13;;;1.03;;
75191;SDS011;63771;52.580;9.734;2023-07-20T14:08:13;1.77;;;0.93;;
75191;SDS011;63771;52.580;9.734;2023-07-20T14:10:39;0.90;;;0.90;;
75191;SDS011;63771;52.580;9.734;2023-07-20T14:13:04;0.80;;;0.80;;
75191;SDS011;63771;52.580;9.734;2023-07-20T14:15:30;0.52;;;0.52;;
75191;SDS011;63771;52.580;9.734;2023-07-20T14:17:56;0.90;;;0.88;;
75191;SDS011;63771;52.580;9.734;2023-07-20T14:20:21;0.88;;;0.60;;
75191;SDS011;63771;52.580;9.734;2023-07-20T14:22:46;0.68;;;0.68;;
75191;SDS011;63771;52.580;9.734;2023-07-20T14:25:13;0.65;;;0.65;;
75191;SDS011;63771;52.580;9.734;2023-07-20T14:27:38;0.57;;;0.57;;
75191;SDS011;63771;52.580;9.734;2023-07-20T14:30:04;1.35;;;1.25;;
75191;SDS011;63771;52.580;9.734;2023-07-20T14:32:30;0.80;;;0.80;;
75191;SDS011;63771;52.580;9.734;2023-07-20T14:34:56;0.70;;;0.70;;
75191;SDS011;63771;52.580;9.734;2023-07-20T14:37:21;0.70;;;0.70;;
75191;SDS011;63771;52.580;9.734;2023-07-20T14:39:46;1.75;;;0.80;;
75191;SDS011;63771;52.580;9.734;2023-07-20T14:42:13;2.70;;;0.90;;
75191;SDS011;63771;52.580;9.734;2023-07-20T14:44:38;3.00;;;1.25;;
75191;SDS011;63771;52.580;9.734;2023-07-20T14:47:04;0.97;;;0.93;;
75191;SDS011;63771;52.580;9.734;2023-07-20T14:49:29;1.00;;;0.95;;
75191;SDS011;63771;52.580;9.734;2023-07-20T14:51:54;0.90;;;0.90;;
75191;SDS011;63771;52.580;9.734;2023-07-20T14:54:20;1.42;;;1.00;;
75191;SDS011;63771;52.580;9.734;2023-07-20T14:56:49;1.15;;;1.00;;
75191;SDS011;63771;52.580;9.734;2023-07-20T14:59:18;2.53;;;1.05;;
75191;SDS011;63771;52.580;9.734;2023-07-20T15:01:44;1.27;;;1.13;;
75191;SDS011;63771;52.580;9.734;2023-07-20T15:04:10;1.30;;;1.20;;
75191;SDS011;63771;52.580;9.734;2023-07-20T15:06:36;1.30;;;1.20;;
75191;SDS011;63771;52.580;9.734;2023-07-20T15:09:02;0.88;;;0.80;;
75191;SDS011;63771;52.580;9.734;2023-07-20T15:11:27;1.73;;;0.90;;